Time;durP1;ratioP1;P1;durP2;ratioP2;P2;SDS_P1;SDS_P2;PMS_P1;PMS_P2;Temp;Humidity;BMP_temperature;BMP_pressure;BME280_temperature;BME280_humidity;BME280_pressure;Samples;Min_cycle;Max_cycle;Signal;HPM_P1;HPM_P2
2022/04/16 00:00:52;;;;;;;;;;;;;;;12.93;53.51;93273.47;2055251;70;20145;-69
2022/04/16 00:03:19;;;;;;;;;;;;;;;12.92;53.17;93274.81;2055474;70;20414;-69
2022/04/16 00:05:45;;;;;;;;;;;;;;;12.76;53.58;93270.97;2055137;70;20077;-69
2022/04/16 00:08:10;;;;;;;;;;;;;;;12.75;54.20;93268.78;2055378;69;20050;-69
2022/04/16 00:10:37;;;;;;;;;;;;;;;12.79;52.64;93274.69;2055480;70;20086;-69
2022/04/16 00:13:03;;;;;;;;;;;;;;;12.70;52.48;93271.34;2055085;70;20119;-68
2022/04/16 00:15:29;;;;;;;;;;;;;;;12.55;52.28;93268.22;2055224;70;20055;-69
2022/04/16 00:17:58;;;;;;;;;;;;;;;12.55;51.53;93271.06;2055078;69;20047;-68
2022/04/16 00:20:27;;;;;;;;;;;;;;;12.34;52.13;93269.78;2055026;69;20054;-68
2022/04/16 00:22:52;;;;;;;;;;;;;;;12.25;52.30;93264.97;2054702;69;20406;-68
2022/04/16 00:25:19;;;;;;;;;;;;;;;12.17;53.04;93259.56;2055506;70;20052;-68
2022/04/16 00:27:44;;;;;;;;;;;;;;;12.18;52.46;93265.94;2068477;69;20133;-69
2022/04/16 00:30:10;;;;;;;;;;;;;;;11.97;54.30;93255.44;2055533;69;20062;-68
2022/04/16 00:32:35;;;;;;;;;;;;;;;12.05;54.20;93255.97;2055238;70;20066;-68
2022/04/16 00:35:02;;;;;;;;;;;;;;;12.21;53.48;93253.44;2055136;70;20054;-69
2022/04/16 00:37:27;;;;;;;;;;;;;;;11.78;55.64;93255.59;2068331;69;20047;-68
2022/04/16 00:39:52;;;;;;;;;;;;;;;12.01;54.18;93258.53;2055051;70;20057;-69
2022/04/16 00:42:18;;;;;;;;;;;;;;;11.70;55.50;93253.69;2055149;69;20043;-69
2022/04/16 00:44:43;;;;;;;;;;;;;;;12.00;53.15;93253.47;2068101;69;20070;-70
2022/04/16 00:47:09;;;;;;;;;;;;;;;11.88;53.00;93261.91;2054982;70;20050;-71
2022/04/16 00:49:35;;;;;;;;;;;;;;;11.70;53.50;93250.88;2055491;70;20475;-69
2022/04/16 00:52:01;;;;;;;;;;;;;;;11.86;51.85;93245.56;2055112;70;20120;-71
2022/04/16 00:54:26;;;;;;;;;;;;;;;11.92;51.92;93245.97;2065127;69;20188;-70
2022/04/16 00:56:52;;;;;;;;;;;;;;;11.68;52.83;93244.34;2055135;70;20150;-70
2022/04/16 00:59:17;;;;;;;;;;;;;;;11.50;53.35;93252.38;2054985;70;20062;-69
2022/04/16 01:01:43;;;;;;;;;;;;;;;11.35;53.98;93249.94;2055000;70;20046;-68
2022/04/16 01:04:09;;;;;;;;;;;;;;;11.44;53.71;93246.31;2055041;69;20506;-69
2022/04/16 01:06:36;;;;;;;;;;;;;;;11.55;54.16;93247.75;2055310;69;20054;-67
2022/04/16 01:09:02;;;;;;;;;;;;;;;11.24;55.02;93248.53;2054934;70;20062;-68
2022/04/16 01:11:27;;;;;;;;;;;;;;;11.56;52.90;93246.41;2055048;70;20049;-70
2022/04/16 01:13:53;;;;;;;;;;;;;;;11.30;53.61;93245.38;2054814;70;20054;-70
2022/04/16 01:16:19;;;;;;;;;;;;;;;11.24;54.57;93247.81;2054801;70;20069;-67
2022/04/16 01:18:46;;;;;;;;;;;;;;;11.30;53.61;93246.13;2055003;70;20101;-68
2022/04/16 01:21:12;;;;;;;;;;;;;;;11.30;53.50;93242.56;2054834;69;20111;-67
2022/04/16 01:23:37;;;;;;;;;;;;;;;11.08;53.95;93256.63;2067995;69;20058;-67
2022/04/16 01:26:03;;;;;;;;;;;;;;;11.00;53.62;93252.53;2068120;69;20553;-68
2022/04/16 01:28:28;;;;;;;;;;;;;;;10.97;54.21;93245.28;2055185;70;20054;-67
2022/04/16 01:30:54;;;;;;;;;;;;;;;10.69;54.99;93251.19;2068021;69;20654;-68
2022/04/16 01:33:19;;;;;;;;;;;;;;;10.65;56.01;93253.72;2055221;70;20058;-70
2022/04/16 01:35:44;;;;;;;;;;;;;;;10.74;56.05;93252.19;2055019;70;20142;-70
2022/04/16 01:38:10;;;;;;;;;;;;;;;10.69;54.29;93250.44;2054946;70;20052;-68
2022/04/16 01:40:35;;;;;;;;;;;;;;;10.58;56.36;93251.84;2055368;70;20051;-68
2022/04/16 01:43:01;;;;;;;;;;;;;;;10.72;55.53;93246.44;2055358;70;20070;-67
2022/04/16 01:45:26;;;;;;;;;;;;;;;10.59;55.64;93244.13;2055336;69;20054;-68
2022/04/16 01:47:52;;;;;;;;;;;;;;;10.61;55.87;93261.16;2055318;70;20053;-67
2022/04/16 01:50:18;;;;;;;;;;;;;;;10.38;55.80;93247.59;2055214;70;20054;-68
2022/04/16 01:52:44;;;;;;;;;;;;;;;10.41;57.00;93247.13;2055143;69;20117;-67
2022/04/16 01:55:10;;;;;;;;;;;;;;;10.39;55.83;93249.06;2055122;69;20117;-68
2022/04/16 01:57:36;;;;;;;;;;;;;;;10.37;55.30;93249.66;2055132;70;20047;-67
2022/04/16 02:00:03;;;;;;;;;;;;;;;10.27;56.02;93257.41;2055743;70;20066;-68
2022/04/16 02:02:30;;;;;;;;;;;;;;;10.15;56.32;93256.50;2068512;69;20081;-69
2022/04/16 02:04:56;;;;;;;;;;;;;;;10.39;55.34;93258.25;2068731;69;20564;-70
2022/04/16 02:07:22;;;;;;;;;;;;;;;10.39;55.21;93266.69;2055801;70;20147;-69
2022/04/16 02:09:47;;;;;;;;;;;;;;;10.09;57.39;93264.53;2068652;69;20501;-69
2022/04/16 02:12:13;;;;;;;;;;;;;;;10.24;55.94;93267.03;2055722;70;20555;-69
2022/04/16 02:14:38;;;;;;;;;;;;;;;10.28;55.63;93270.13;2055706;70;20399;-69
2022/04/16 02:17:04;;;;;;;;;;;;;;;10.45;53.83;93263.59;2055846;70;20126;-69
2022/04/16 02:19:29;;;;;;;;;;;;;;;10.37;55.37;93260.19;2055826;70;20050;-69
2022/04/16 02:21:55;;;;;;;;;;;;;;;10.22;55.59;93261.25;2055711;69;20153;-71
2022/04/16 02:24:20;;;;;;;;;;;;;;;10.28;55.24;93253.25;2055746;70;20047;-71
2022/04/16 02:26:46;;;;;;;;;;;;;;;10.27;54.81;93254.59;2055771;70;20474;-72
2022/04/16 02:29:14;;;;;;;;;;;;;;;10.12;55.54;93261.22;2055827;70;20050;-71
2022/04/16 02:31:41;;;;;;;;;;;;;;;10.19;55.90;93254.72;2055826;70;20119;-71
2022/04/16 02:34:07;;;;;;;;;;;;;;;10.07;55.14;93253.84;2055805;70;20432;-71
2022/04/16 02:36:33;;;;;;;;;;;;;;;10.08;55.92;93260.22;2068814;69;20053;-71
2022/04/16 02:38:59;;;;;;;;;;;;;;;10.04;55.81;93257.13;2055659;70;20049;-70
2022/04/16 02:41:25;;;;;;;;;;;;;;;10.28;54.16;93263.78;2055983;70;20160;-72
2022/04/16 02:43:50;;;;;;;;;;;;;;;10.31;53.34;93259.75;2055761;70;20050;-71
2022/04/16 02:49:00;;;;;;;;;;;;;;;9.99;56.54;93260.97;2055785;70;20054;-70
2022/04/16 02:51:26;;;;;;;;;;;;;;;10.05;55.95;93258.59;2055748;70;20107;-70
2022/04/16 02:53:51;;;;;;;;;;;;;;;9.87;57.06;93263.66;2055652;70;20058;-71
2022/04/16 02:56:17;;;;;;;;;;;;;;;9.75;57.79;93257.88;2055768;70;20049;-70
2022/04/16 02:58:43;;;;;;;;;;;;;;;9.80;57.20;93270.16;2068717;69;20058;-71
2022/04/16 03:01:08;;;;;;;;;;;;;;;9.83;56.89;93263.34;2068917;69;20473;-71
2022/04/16 03:03:34;;;;;;;;;;;;;;;9.21;59.49;93263.78;2055733;70;20070;-71
2022/04/16 03:05:59;;;;;;;;;;;;;;;9.41;58.95;93270.91;2055751;70;20058;-71
2022/04/16 03:08:25;;;;;;;;;;;;;;;9.48;58.18;93262.91;2055629;70;20058;-69
2022/04/16 03:10:51;;;;;;;;;;;;;;;9.56;58.87;93258.63;2068724;69;20054;-69
2022/04/16 03:13:17;;;;;;;;;;;;;;;9.58;58.25;93261.59;2055205;69;20487;-69
2022/04/16 03:18:27;;;;;;;;;;;;;;;9.33;58.74;93250.63;2049143;70;20062;-69
2022/04/16 03:20:52;;;;;;;;;;;;;;;9.31;59.78;93258.19;2049359;70;20476;-69
2022/04/16 03:23:18;;;;;;;;;;;;;;;9.56;58.20;93249.44;2049020;70;20113;-70
2022/04/16 03:25:43;;;;;;;;;;;;;;;9.41;58.31;93251.22;2048568;70;20582;-70
2022/04/16 03:28:09;;;;;;;;;;;;;;;9.55;57.85;93251.53;2048562;70;20055;-70
2022/04/16 03:30:35;;;;;;;;;;;;;;;9.50;57.06;93252.56;2049097;70;20070;-71
2022/04/16 03:33:00;;;;;;;;;;;;;;;9.39;57.69;93248.28;2048505;70;20082;-71
2022/04/16 03:35:26;;;;;;;;;;;;;;;9.45;57.94;93245.16;2049220;70;20051;-71
2022/04/16 03:37:52;;;;;;;;;;;;;;;9.45;57.83;93241.63;2048559;70;20062;-71
2022/04/16 03:40:19;;;;;;;;;;;;;;;9.43;57.58;93237.31;2049089;70;20055;-70
2022/04/16 03:42:45;;;;;;;;;;;;;;;9.31;58.26;93235.69;2049113;70;20078;-71
2022/04/16 03:45:15;;;;;;;;;;;;;;;9.35;58.09;93236.72;2049012;69;20054;-71
2022/04/16 03:47:40;;;;;;;;;;;;;;;9.19;58.23;93246.03;2049009;70;20062;-71
2022/04/16 03:50:06;;;;;;;;;;;;;;;9.33;57.76;93253.44;2048998;70;20051;-69
2022/04/16 03:52:38;;;;;;;;;;;;;;;9.04;59.47;93247.78;2048899;70;20585;-71
2022/04/16 04:00:32;;;;;;;;;;;;;;;9.08;59.34;93252.97;2049212;70;20419;-70
2022/04/16 04:02:58;;;;;;;;;;;;;;;9.18;58.50;93256.53;2049066;70;20517;-71
2022/04/16 04:05:23;;;;;;;;;;;;;;;9.08;59.31;93259.31;2049051;70;20494;-71
2022/04/16 04:07:49;;;;;;;;;;;;;;;8.98;59.63;93255.75;2048399;70;20043;-71
2022/04/16 04:10:14;;;;;;;;;;;;;;;9.32;57.78;93257.56;2048997;70;20255;-71
2022/04/16 04:12:40;;;;;;;;;;;;;;;9.04;59.20;93261.09;2051972;70;20491;-71
2022/04/16 04:15:05;;;;;;;;;;;;;;;9.26;58.73;93264.81;2068768;69;20043;-71
2022/04/16 04:17:31;;;;;;;;;;;;;;;9.33;57.56;93266.75;2055694;70;20093;-73
2022/04/16 04:19:56;;;;;;;;;;;;;;;9.26;58.12;93270.44;2068618;69;20046;-72
2022/04/16 04:22:22;;;;;;;;;;;;;;;9.34;57.80;93268.22;2055668;70;20081;-71
2022/04/16 04:24:47;;;;;;;;;;;;;;;9.05;59.73;93263.28;2055614;70;20047;-72
2022/04/16 04:27:13;;;;;;;;;;;;;;;9.10;59.36;93265.06;2055659;69;20128;-70
2022/04/16 04:29:38;;;;;;;;;;;;;;;9.12;59.61;93267.31;2055589;69;20505;-70
2022/04/16 04:32:05;;;;;;;;;;;;;;;9.17;59.41;93263.47;2055538;70;20078;-70
2022/04/16 04:34:30;;;;;;;;;;;;;;;9.12;59.65;93250.47;2055700;69;20151;-70
2022/04/16 04:36:56;;;;;;;;;;;;;;;9.17;59.75;93255.06;2055563;70;20128;-70
2022/04/16 04:39:21;;;;;;;;;;;;;;;9.32;58.35;93265.25;2055501;70;20042;-72
2022/04/16 04:41:47;;;;;;;;;;;;;;;9.11;60.16;93263.00;2068558;69;20046;-70
2022/04/16 04:44:13;;;;;;;;;;;;;;;9.22;58.30;93261.72;2055572;70;20483;-72
2022/04/16 04:46:38;;;;;;;;;;;;;;;9.15;59.32;93260.50;2068562;69;20058;-70
2022/04/16 04:49:07;;;;;;;;;;;;;;;9.11;59.41;93265.81;2068538;69;20078;-71
2022/04/16 04:51:34;;;;;;;;;;;;;;;9.22;58.84;93276.50;2055546;70;20488;-70
2022/04/16 04:53:59;;;;;;;;;;;;;;;9.23;58.46;93269.53;2068424;69;20184;-70
2022/04/16 04:56:25;;;;;;;;;;;;;;;8.94;60.89;93280.72;2055517;70;20204;-72
2022/04/16 04:58:50;;;;;;;;;;;;;;;9.11;60.27;93277.03;2055549;69;20486;-71
2022/04/16 05:01:18;;;;;;;;;;;;;;;9.29;59.71;93267.19;2068761;69;20051;-70
2022/04/16 05:03:43;;;;;;;;;;;;;;;9.26;59.56;93273.25;2055472;70;20145;-70
2022/04/16 05:06:09;;;;;;;;;;;;;;;9.00;59.85;93278.38;2055563;70;20137;-71
2022/04/16 05:08:34;;;;;;;;;;;;;;;9.25;58.50;93283.72;2068604;69;20135;-71
2022/04/16 05:10:59;;;;;;;;;;;;;;;9.33;58.23;93283.59;2055441;70;20137;-71
2022/04/16 05:13:25;;;;;;;;;;;;;;;9.32;58.02;93284.94;2068378;69;20070;-71
2022/04/16 05:15:50;;;;;;;;;;;;;;;9.36;59.25;93288.78;2055446;69;20054;-71
2022/04/16 05:18:16;;;;;;;;;;;;;;;9.31;59.51;93295.44;2055515;70;20062;-71
2022/04/16 05:20:41;;;;;;;;;;;;;;;9.40;59.65;93285.53;2055459;70;20090;-72
2022/04/16 05:23:07;;;;;;;;;;;;;;;9.42;59.12;93285.69;2055407;69;20086;-71
2022/04/16 05:25:32;;;;;;;;;;;;;;;9.42;58.12;93280.06;2055611;70;20048;-70
2022/04/16 05:27:57;;;;;;;;;;;;;;;9.36;59.57;93285.97;2055460;70;20120;-71
2022/04/16 05:30:29;;;;;;;;;;;;;;;9.53;58.26;93293.56;2055692;70;20054;-72
2022/04/16 05:33:02;;;;;;;;;;;;;;;9.58;58.82;93286.91;2055419;69;20053;-72
2022/04/16 05:35:27;;;;;;;;;;;;;;;9.57;58.76;93290.28;2055925;69;20115;-71
2022/04/16 05:37:53;;;;;;;;;;;;;;;9.49;59.92;93290.44;2055826;70;20062;-70
2022/04/16 05:40:19;;;;;;;;;;;;;;;9.54;59.88;93285.84;2056060;70;20485;-70
2022/04/16 05:42:44;;;;;;;;;;;;;;;9.57;59.76;93291.00;2056020;69;20066;-71
2022/04/16 05:45:14;;;;;;;;;;;;;;;9.60;60.40;93286.28;2056051;70;20417;-70
2022/04/16 05:47:41;;;;;;;;;;;;;;;9.49;60.30;93284.06;2055909;69;20054;-71
2022/04/16 05:50:07;;;;;;;;;;;;;;;9.84;58.72;93288.06;2068841;69;20137;-71
2022/04/16 05:52:32;;;;;;;;;;;;;;;9.91;58.46;93289.25;2065974;69;20058;-71
2022/04/16 05:54:58;;;;;;;;;;;;;;;9.58;59.45;93291.78;2055886;70;20053;-71
2022/04/16 05:57:25;;;;;;;;;;;;;;;9.82;58.56;93298.44;2055879;70;20466;-72
2022/04/16 05:59:51;;;;;;;;;;;;;;;10.03;58.13;93280.94;2065909;69;20432;-72
2022/04/16 06:02:17;;;;;;;;;;;;;;;9.94;59.87;93290.88;2055939;70;20061;-71
2022/04/16 06:04:43;;;;;;;;;;;;;;;9.97;59.83;93284.06;2055963;70;20136;-73
2022/04/16 06:07:08;;;;;;;;;;;;;;;10.06;59.09;93276.94;2055914;70;20504;-72
2022/04/16 06:09:34;;;;;;;;;;;;;;;9.99;59.23;93280.66;2055745;70;20073;-70
2022/04/16 06:12:03;;;;;;;;;;;;;;;10.09;58.68;93281.41;2056068;69;20094;-70
2022/04/16 06:14:29;;;;;;;;;;;;;;;10.43;54.37;93277.50;2056059;70;20054;-70
2022/04/16 06:16:55;;;;;;;;;;;;;;;10.27;58.92;93276.38;2068906;69;20070;-71
2022/04/16 06:19:20;;;;;;;;;;;;;;;10.54;58.63;93276.88;2068969;69;20123;-70
2022/04/16 06:21:46;;;;;;;;;;;;;;;10.56;58.18;93267.84;2068961;69;20077;-70
2022/04/16 06:24:11;;;;;;;;;;;;;;;10.45;57.83;93276.91;2068783;69;20050;-71
2022/04/16 06:26:37;;;;;;;;;;;;;;;10.73;56.71;93278.91;2068903;69;20081;-70
2022/04/16 06:29:02;;;;;;;;;;;;;;;10.80;56.83;93282.84;2055868;69;20479;-70
2022/04/16 06:31:28;;;;;;;;;;;;;;;10.73;58.06;93278.91;2055761;69;20153;-71
2022/04/16 06:33:53;;;;;;;;;;;;;;;10.58;57.98;93285.63;2055796;70;20099;-71
2022/04/16 06:36:18;;;;;;;;;;;;;;;10.84;56.45;93292.31;2055991;70;20057;-70
2022/04/16 06:38:44;;;;;;;;;;;;;;;10.67;57.35;93282.03;2068757;69;20066;-71
2022/04/16 06:41:09;;;;;;;;;;;;;;;11.17;55.51;93283.28;2055869;70;20058;-70
2022/04/16 06:43:35;;;;;;;;;;;;;;;11.47;55.34;93287.41;2055752;69;20102;-70
2022/04/16 06:46:00;;;;;;;;;;;;;;;11.79;57.03;93286.00;2065905;69;20566;-72
2022/04/16 06:48:26;;;;;;;;;;;;;;;12.10;54.87;93276.72;2055854;70;20149;-70
2022/04/16 06:50:51;;;;;;;;;;;;;;;12.30;54.46;93269.53;2055741;70;20057;-70
2022/04/16 06:53:17;;;;;;;;;;;;;;;12.54;52.00;93272.41;2055682;70;20070;-71
2022/04/16 06:55:43;;;;;;;;;;;;;;;12.32;53.76;93260.44;2055908;69;20153;-71
2022/04/16 06:58:09;;;;;;;;;;;;;;;12.74;52.44;93268.03;2055925;69;20127;-71
2022/04/16 07:00:34;;;;;;;;;;;;;;;13.00;51.00;93271.72;2055817;70;20122;-71
2022/04/16 07:03:00;;;;;;;;;;;;;;;13.19;50.64;93273.56;2055756;69;20466;-71
2022/04/16 07:05:25;;;;;;;;;;;;;;;13.16;50.59;93263.50;2068904;69;20548;-69
2022/04/16 07:07:50;;;;;;;;;;;;;;;13.12;50.61;93264.00;2055773;69;20501;-71
2022/04/16 07:10:16;;;;;;;;;;;;;;;13.24;49.33;93252.72;2055864;70;20478;-71
2022/04/16 07:12:41;;;;;;;;;;;;;;;12.97;51.18;93262.41;2068701;69;20054;-69
2022/04/16 07:15:07;;;;;;;;;;;;;;;13.07;49.49;93255.88;2055799;69;20046;-70
2022/04/16 07:17:33;;;;;;;;;;;;;;;13.26;50.42;93258.47;2055708;70;20049;-70
2022/04/16 07:19:58;;;;;;;;;;;;;;;13.50;49.47;93249.97;2055722;70;20599;-70
2022/04/16 07:22:23;;;;;;;;;;;;;;;13.45;49.30;93252.53;2055706;69;20043;-71
2022/04/16 07:24:49;;;;;;;;;;;;;;;13.43;50.95;93246.78;2055609;69;20600;-71
2022/04/16 07:27:15;;;;;;;;;;;;;;;13.31;50.94;93248.88;2055762;70;20607;-72
2022/04/16 07:29:41;;;;;;;;;;;;;;;13.46;50.59;93248.34;2055892;70;20042;-72
2022/04/16 07:32:06;;;;;;;;;;;;;;;13.79;50.57;93252.34;2055836;69;20137;-72
2022/04/16 07:34:32;;;;;;;;;;;;;;;14.05;49.39;93241.78;2055758;69;20050;-71
2022/04/16 07:36:57;;;;;;;;;;;;;;;14.40;49.68;93241.63;2055777;69;20433;-72
2022/04/16 07:39:23;;;;;;;;;;;;;;;14.59;48.91;93244.13;2055718;70;20145;-72
2022/04/16 07:41:51;;;;;;;;;;;;;;;14.89;48.62;93242.22;2055724;70;20417;-70
2022/04/16 07:44:17;;;;;;;;;;;;;;;14.82;47.37;93234.75;2068689;69;20048;-70
2022/04/16 07:46:42;;;;;;;;;;;;;;;15.17;47.84;93237.31;2055824;70;20082;-70
2022/04/16 07:49:08;;;;;;;;;;;;;;;15.38;48.04;93233.41;2068714;69;20085;-70
2022/04/16 07:51:33;;;;;;;;;;;;;;;15.78;47.32;93236.88;2055712;69;20063;-70
2022/04/16 07:53:59;;;;;;;;;;;;;;;15.86;47.18;93236.56;2065740;69;20577;-70
2022/04/16 07:56:25;;;;;;;;;;;;;;;16.43;45.03;93233.63;2055593;70;20078;-68
2022/04/16 07:58:51;;;;;;;;;;;;;;;16.81;44.76;93233.97;2055655;70;20492;-69
2022/04/16 08:01:17;;;;;;;;;;;;;;;17.20;45.37;93245.75;2055737;70;20050;-72
2022/04/16 08:03:42;;;;;;;;;;;;;;;17.20;45.01;93242.91;2055618;70;20177;-69
2022/04/16 08:06:08;;;;;;;;;;;;;;;17.68;43.95;93234.28;2055692;70;20094;-69
2022/04/16 08:08:33;;;;;;;;;;;;;;;16.96;43.54;93231.16;2055458;70;20057;-70
2022/04/16 08:10:59;;;;;;;;;;;;;;;17.57;43.91;93232.41;2055462;70;20115;-69
2022/04/16 08:13:24;;;;;;;;;;;;;;;17.65;42.68;93238.44;2068535;69;20085;-70
2022/04/16 08:15:50;;;;;;;;;;;;;;;17.47;43.63;93236.25;2068665;69;20047;-69
2022/04/16 08:18:16;;;;;;;;;;;;;;;18.06;43.01;93235.22;2055629;69;20050;-69
2022/04/16 08:20:42;;;;;;;;;;;;;;;17.45;42.91;93233.31;2055648;69;20453;-69
2022/04/16 08:23:08;;;;;;;;;;;;;;;18.31;42.85;93239.81;2055486;70;20488;-69
2022/04/16 08:28:00;;;;;;;;;;;;;;;16.93;43.03;93228.84;2055567;70;20053;-69
2022/04/16 08:30:25;;;;;;;;;;;;;;;18.63;42.40;93233.94;2055582;69;20066;-69
2022/04/16 08:32:51;;;;;;;;;;;;;;;19.46;40.84;93230.66;2055568;70;20050;-71
2022/04/16 08:35:18;;;;;;;;;;;;;;;19.40;39.70;93236.88;2068660;69;20148;-70
2022/04/16 08:37:43;;;;;;;;;;;;;;;19.72;39.55;93239.47;2055478;70;20060;-72
2022/04/16 08:40:09;;;;;;;;;;;;;;;19.93;38.60;93230.22;2055723;70;20043;-71
2022/04/16 08:42:36;;;;;;;;;;;;;;;20.28;37.60;93228.53;2055602;70;20072;-72
2022/04/16 08:45:02;;;;;;;;;;;;;;;19.85;39.05;93226.38;2065776;69;20053;-70
2022/04/16 08:47:28;;;;;;;;;;;;;;;19.37;39.69;93221.06;2055585;69;20104;-69
2022/04/16 08:49:53;;;;;;;;;;;;;;;19.35;39.32;93215.28;2055701;70;20062;-72
2022/04/16 08:52:20;;;;;;;;;;;;;;;19.63;39.56;93218.47;2055628;70;20066;-69
2022/04/16 08:54:46;;;;;;;;;;;;;;;19.57;38.28;93215.38;2055448;69;20149;-72
2022/04/16 08:57:11;;;;;;;;;;;;;;;19.13;37.15;93217.31;2055523;70;20504;-69
2022/04/16 08:59:37;;;;;;;;;;;;;;;18.32;38.10;93212.75;2055559;70;20053;-70
2022/04/16 09:02:02;;;;;;;;;;;;;;;18.28;38.29;93213.34;2055566;70;20140;-70
2022/04/16 09:04:31;;;;;;;;;;;;;;;17.71;38.34;93213.06;2055500;70;20146;-70
2022/04/16 09:07:01;;;;;;;;;;;;;;;17.96;38.45;93220.53;2055514;70;20088;-69
2022/04/16 09:09:26;;;;;;;;;;;;;;;17.54;39.57;93217.31;2068379;69;20447;-69
2022/04/16 09:11:52;;;;;;;;;;;;;;;17.94;37.06;93214.78;2055423;70;20053;-72
2022/04/16 09:14:18;;;;;;;;;;;;;;;17.84;36.23;93211.50;2068598;69;20413;-73
2022/04/16 09:16:43;;;;;;;;;;;;;;;17.01;35.73;93206.47;2055603;69;20050;-70
2022/04/16 09:19:21;;;;;;;;;;;;;;;17.06;36.17;93205.28;2055526;70;20424;-69
2022/04/16 09:21:46;;;;;;;;;;;;;;;17.43;34.05;93212.59;2055443;69;20490;-69
2022/04/16 09:24:12;;;;;;;;;;;;;;;17.01;33.37;93209.31;2055408;70;20054;-70
2022/04/16 09:26:38;;;;;;;;;;;;;;;16.82;33.98;93209.88;2065686;69;20046;-73
2022/04/16 09:29:09;;;;;;;;;;;;;;;16.55;34.60;93205.06;2055510;70;20054;-72
2022/04/16 09:31:38;;;;;;;;;;;;;;;17.09;32.66;93211.78;2055416;70;20112;-74
2022/04/16 09:34:03;;;;;;;;;;;;;;;17.34;33.00;93205.81;2055405;70;20535;-69
2022/04/16 09:36:29;;;;;;;;;;;;;;;16.94;33.73;93205.47;2055565;70;20046;-69
2022/04/16 09:39:02;;;;;;;;;;;;;;;17.43;33.72;93206.91;2055335;70;20502;-72
2022/04/16 09:41:34;;;;;;;;;;;;;;;17.32;33.44;93207.81;2068463;69;20236;-70
2022/04/16 09:44:00;;;;;;;;;;;;;;;16.92;32.06;93207.50;2055446;70;20076;-68
2022/04/16 09:46:30;;;;;;;;;;;;;;;17.39;32.56;93201.75;2055477;70;20063;-69
2022/04/16 09:49:03;;;;;;;;;;;;;;;17.08;33.42;93198.94;2055360;69;20074;-73
2022/04/16 09:51:34;;;;;;;;;;;;;;;17.15;32.81;93201.44;2055389;70;20166;-70
2022/04/16 09:54:02;;;;;;;;;;;;;;;16.44;31.76;93203.81;2055311;70;20047;-68
2022/04/16 09:56:28;;;;;;;;;;;;;;;16.28;32.50;93198.13;2055402;70;20043;-68
2022/04/16 09:58:55;;;;;;;;;;;;;;;16.69;31.96;93202.88;2055376;70;20058;-69
2022/04/16 10:01:24;;;;;;;;;;;;;;;16.95;31.98;93203.34;2055381;70;20051;-68
2022/04/16 10:03:51;;;;;;;;;;;;;;;15.84;33.38;93208.03;2055374;70;20142;-69
2022/04/16 10:06:16;;;;;;;;;;;;;;;16.50;33.20;93219.06;2055385;70;20052;-71
2022/04/16 10:08:42;;;;;;;;;;;;;;;16.61;33.49;93216.69;2068274;69;20055;-72
2022/04/16 10:11:08;;;;;;;;;;;;;;;16.21;33.24;93219.81;2055430;70;20045;-74
2022/04/16 10:13:38;;;;;;;;;;;;;;;15.86;33.51;93216.69;2055251;70;20139;-69
2022/04/16 10:16:07;;;;;;;;;;;;;;;16.35;34.75;93228.28;2055253;70;20081;-72
2022/04/16 10:18:34;;;;;;;;;;;;;;;17.11;35.31;93217.56;2055283;69;20053;-73
2022/04/16 10:21:00;;;;;;;;;;;;;;;16.61;34.61;93225.22;2068676;69;20119;-73
2022/04/16 10:23:30;;;;;;;;;;;;;;;17.49;33.06;93230.66;2055684;69;20074;-70
2022/04/16 10:26:03;;;;;;;;;;;;;;;17.94;31.78;93232.59;2055790;70;20067;-70
2022/04/16 10:28:37;;;;;;;;;;;;;;;18.64;30.50;93238.97;2055817;70;20191;-69
2022/04/16 10:31:03;;;;;;;;;;;;;;;19.64;29.53;93244.91;2055846;70;20141;-70
2022/04/16 10:33:29;;;;;;;;;;;;;;;20.10;27.33;93245.78;2055916;70;20042;-70
2022/04/16 10:35:59;;;;;;;;;;;;;;;20.04;28.92;93252.03;2055835;70;20052;-70
2022/04/16 10:38:25;;;;;;;;;;;;;;;21.05;27.08;93256.75;2055794;70;20046;-71
2022/04/16 10:40:54;;;;;;;;;;;;;;;20.39;27.96;93261.03;2055806;70;20588;-71
2022/04/16 10:43:25;;;;;;;;;;;;;;;21.94;26.98;93269.38;2055777;70;20050;-72
2022/04/16 10:46:16;;;;;;;;;;;;;;;19.46;28.66;93268.50;2055960;69;20054;-75
2022/04/16 10:48:42;;;;;;;;;;;;;;;20.93;28.35;93259.22;2067983;69;20050;-72
2022/04/16 10:51:08;;;;;;;;;;;;;;;21.35;27.28;93282.03;2055894;70;20076;-74
2022/04/16 10:53:35;;;;;;;;;;;;;;;22.27;26.44;93281.75;2068664;69;20078;-73
2022/04/16 10:56:11;;;;;;;;;;;;;;;22.97;24.72;93287.84;2055786;69;20145;-71
2022/04/16 10:58:38;;;;;;;;;;;;;;;21.67;25.60;93281.50;2055832;70;20062;-71
2022/04/16 11:01:06;;;;;;;;;;;;;;;20.68;26.66;93285.63;2055851;69;20050;-70
2022/04/16 11:03:33;;;;;;;;;;;;;;;20.27;26.43;93284.97;2055741;70;20141;-70
2022/04/16 11:06:03;;;;;;;;;;;;;;;19.82;27.10;93279.81;2055798;70;20054;-70
2022/04/16 11:08:28;;;;;;;;;;;;;;;22.25;26.03;93281.69;2055676;70;20046;-72
2022/04/16 11:11:03;;;;;;;;;;;;;;;23.96;23.79;93291.50;2068760;69;20066;-73
2022/04/16 11:13:30;;;;;;;;;;;;;;;23.44;23.52;93285.31;2053580;69;20128;-73
2022/04/16 11:15:56;;;;;;;;;;;;;;;20.71;24.65;93269.97;2049209;70;20082;-71
2022/04/16 11:18:21;;;;;;;;;;;;;;;24.36;21.96;93282.16;2049180;70;20055;-69
2022/04/16 11:20:54;;;;;;;;;;;;;;;24.73;20.90;93282.84;2049148;70;20082;-69
2022/04/16 11:23:23;;;;;;;;;;;;;;;23.38;22.95;93273.69;2049059;70;20096;-70
2022/04/16 11:34:20;;;;;;;;;;;;;;;21.23;23.21;93279.50;2049113;70;20495;-71
2022/04/16 11:36:53;;;;;;;;;;;;;;;21.04;24.89;93280.34;2049141;70;20090;-70
2022/04/16 11:39:23;;;;;;;;;;;;;;;24.04;21.31;93293.78;2045769;70;20117;-72
2022/04/16 11:41:49;;;;;;;;;;;;;;;25.56;18.92;93295.69;2049135;70;20500;-72
2022/04/16 11:44:15;;;;;;;;;;;;;;;29.73;17.55;93307.88;2048980;70;20065;-70
2022/04/16 11:46:41;;;;;;;;;;;;;;;27.06;16.84;93278.66;2047805;70;20051;-72
2022/04/16 11:49:07;;;;;;;;;;;;;;;27.75;17.77;93283.53;2048016;70;20102;-71
2022/04/16 11:51:36;;;;;;;;;;;;;;;27.73;17.97;93286.41;2048284;70;20142;-73
2022/04/16 11:54:02;;;;;;;;;;;;;;;27.60;17.33;93292.09;2047389;70;20526;-70
2022/04/16 11:56:27;;;;;;;;;;;;;;;28.30;16.72;93280.88;2048458;70;20216;-73
2022/04/16 11:58:53;;;;;;;;;;;;;;;31.31;15.29;93294.13;2045179;70;20067;-71
2022/04/16 12:01:20;;;;;;;;;;;;;;;29.38;14.75;93312.97;2047033;70;20062;-70
2022/04/16 12:03:45;;;;;;;;;;;;;;;28.12;16.80;93288.03;2048814;70;20515;-73
2022/04/16 12:06:11;;;;;;;;;;;;;;;27.86;16.27;93320.47;2048836;70;20054;-72
2022/04/16 12:08:37;;;;;;;;;;;;;;;26.11;16.92;93301.47;2048785;70;20128;-74
2022/04/16 12:11:03;;;;;;;;;;;;;;;30.87;15.99;93304.59;2045637;70;20486;-72
2022/04/16 12:13:36;;;;;;;;;;;;;;;29.90;15.42;93291.16;2048208;70;20144;-71
2022/04/16 12:16:06;;;;;;;;;;;;;;;30.56;14.79;93294.56;2048948;70;20499;-70
2022/04/16 12:18:35;;;;;;;;;;;;;;;26.75;17.00;93279.81;2048926;70;20062;-71
2022/04/16 12:21:05;;;;;;;;;;;;;;;26.79;17.43;93280.59;2048127;70;20047;-74
2022/04/16 12:23:30;;;;;;;;;;;;;;;27.00;17.32;93280.78;2048666;70;20082;-72
2022/04/16 12:26:06;;;;;;;;;;;;;;;28.21;16.27;93296.75;2048975;70;20481;-75
2022/04/16 12:28:43;;;;;;;;;;;;;;;27.88;16.93;93287.94;2048799;70;20569;-73
2022/04/16 12:31:08;;;;;;;;;;;;;;;29.11;16.09;93292.69;2048952;70;20051;-77
2022/04/16 12:33:34;;;;;;;;;;;;;;;28.83;16.70;93302.03;2048338;70;20100;-76
2022/04/16 12:35:59;;;;;;;;;;;;;;;26.09;18.07;93293.53;2048807;70;20051;-76
2022/04/16 12:38:25;;;;;;;;;;;;;;;26.87;18.31;93294.38;2048914;70;20490;-75
2022/04/16 12:40:52;;;;;;;;;;;;;;;25.21;18.40;93297.34;2048997;70;20425;-72
2022/04/16 12:43:17;;;;;;;;;;;;;;;26.24;18.60;93280.00;2048860;70;20180;-70
2022/04/16 12:45:43;;;;;;;;;;;;;;;27.02;18.09;93281.50;2048404;70;20518;-72
2022/04/16 12:48:09;;;;;;;;;;;;;;;27.54;17.44;93288.44;2048318;70;20059;-72
2022/04/16 12:50:35;;;;;;;;;;;;;;;28.58;17.69;93283.88;2048829;70;20047;-75
2022/04/16 12:53:01;;;;;;;;;;;;;;;27.32;16.66;93275.28;2048503;70;20178;-71
2022/04/16 12:55:28;;;;;;;;;;;;;;;26.42;17.46;93262.16;2048874;70;20403;-69
2022/04/16 12:57:54;;;;;;;;;;;;;;;28.37;16.82;93279.50;2048953;70;20055;-70
2022/04/16 13:00:20;;;;;;;;;;;;;;;27.69;16.55;93275.50;2049013;70;20482;-70
2022/04/16 13:02:46;;;;;;;;;;;;;;;29.55;15.61;93279.66;2048657;70;20082;-73
2022/04/16 13:05:15;;;;;;;;;;;;;;;31.12;15.59;93278.28;2048829;70;20509;-74
2022/04/16 13:07:41;;;;;;;;;;;;;;;28.16;16.06;93283.72;2048487;70;20062;-71